createdAt,value
2022-09-09T00:03:26.914Z,16.84
2022-09-09T00:08:49.236Z,16.89
2022-09-09T00:13:57.341Z,16.98
2022-09-09T00:19:18.843Z,17.07
2022-09-09T00:24:37.118Z,17.18
2022-09-09T00:29:41.129Z,17.27
2022-09-09T00:35:22.715Z,17.35
2022-09-09T00:40:35.544Z,17.45
2022-09-09T00:46:07.463Z,17.61
2022-09-09T00:51:18.837Z,17.70
2022-09-09T00:56:29.413Z,17.66
2022-09-09T01:01:32.312Z,17.53
2022-09-09T01:06:40.644Z,17.50
2022-09-09T01:12:11.371Z,17.49
2022-09-09T01:17:28.256Z,17.48
2022-09-09T01:23:28.268Z,17.54
2022-09-09T01:28:56.768Z,17.49
2022-09-09T01:34:17.403Z,17.38
2022-09-09T01:39:22.094Z,17.37
2022-09-09T01:44:33.062Z,17.39
2022-09-09T01:49:36.804Z,17.41
2022-09-09T01:54:46.747Z,17.55
2022-09-09T02:00:02.283Z,17.53
2022-09-09T02:05:32.843Z,17.87
2022-09-09T02:11:05.324Z,17.78
2022-09-09T02:16:43.585Z,17.68
2022-09-09T02:21:47.812Z,17.65
2022-09-09T02:26:54.085Z,17.53
2022-09-09T02:32:01.104Z,17.42
2022-09-09T02:37:10.981Z,17.25
2022-09-09T02:42:15.958Z,17.19
2022-09-09T02:47:29.633Z,17.26
2022-09-09T02:52:46.181Z,17.49
2022-09-09T02:57:51.499Z,17.38
2022-09-09T03:02:56.551Z,17.24
2022-09-09T03:07:59.418Z,17.23
2022-09-09T03:13:02.264Z,17.46
2022-09-09T03:18:09.427Z,17.19
2022-09-09T03:23:15.956Z,16.82
2022-09-09T03:28:19.849Z,16.52
2022-09-09T03:33:22.655Z,16.45
2022-09-09T03:38:25.724Z,16.48
2022-09-09T03:43:29.379Z,16.48
2022-09-09T03:48:31.879Z,16.47
2022-09-09T03:53:35.592Z,16.43
2022-09-09T03:58:39.451Z,16.39
2022-09-09T04:03:44.204Z,16.33
2022-09-09T04:08:49.539Z,16.26
2022-09-09T04:13:52.104Z,16.23
2022-09-09T04:18:55.175Z,16.20
2022-09-09T04:23:58.057Z,16.14
2022-09-09T04:29:01.970Z,16.12
2022-09-09T04:34:06.362Z,16.11
2022-09-09T04:39:09.789Z,16.05
2022-09-09T04:44:12.212Z,16.02
2022-09-09T04:49:15.402Z,15.95
2022-09-09T04:54:20.082Z,15.86
2022-09-09T04:59:23.329Z,15.88
2022-09-09T05:04:29.964Z,15.83
2022-09-09T05:09:32.539Z,15.85
2022-09-09T05:14:38.460Z,15.95
2022-09-09T05:19:41.972Z,15.95
2022-09-09T05:24:45.215Z,16.01
2022-09-09T05:29:49.032Z,16.10
2022-09-09T05:34:52.600Z,16.32
2022-09-09T05:39:55.582Z,16.52
2022-09-09T05:44:59.162Z,16.66
2022-09-09T05:50:03.505Z,16.79
2022-09-09T05:55:06.587Z,16.81
2022-09-09T06:00:09.770Z,16.85
2022-09-09T06:05:16.252Z,16.91
2022-09-09T06:10:20.296Z,16.91
2022-09-09T06:15:22.806Z,16.88
2022-09-09T06:20:25.806Z,16.92
2022-09-09T06:25:28.347Z,16.94
2022-09-09T06:30:31.496Z,17.03
2022-09-09T06:35:34.016Z,17.15
2022-09-09T06:40:36.645Z,17.34
2022-09-09T06:45:39.496Z,17.49
2022-09-09T06:50:42.056Z,17.59
2022-09-09T06:55:45.910Z,17.71
2022-09-09T07:00:50.392Z,17.80
2022-09-09T07:05:57.334Z,18.01
2022-09-09T07:11:11.625Z,18.12
2022-09-09T07:16:19.274Z,18.49
2022-09-09T07:21:22.623Z,18.37
2022-09-09T07:26:28.813Z,18.51
2022-09-09T07:31:35.117Z,19.03
2022-09-09T07:36:40.930Z,19.26
2022-09-09T07:41:49.274Z,21.07
2022-09-09T07:46:54.970Z,21.28
2022-09-09T07:52:04.236Z,20.31
2022-09-09T07:57:07.362Z,20.67
2022-09-09T08:02:13.892Z,22.29
2022-09-09T08:07:17.399Z,22.49
2022-09-09T08:12:25.853Z,23.60
2022-09-09T08:17:28.798Z,23.91
2022-09-09T08:22:33.423Z,24.48
2022-09-09T08:27:35.970Z,23.82
2022-09-09T08:32:40.937Z,24.75
2022-09-09T08:37:46.351Z,25.76
2022-09-09T08:42:53.991Z,27.03
2022-09-09T08:48:40.159Z,27.67
2022-09-09T08:53:48.736Z,27.82
2022-09-09T08:58:54.133Z,25.73
2022-09-09T09:04:35.001Z,25.69
2022-09-09T09:10:30.507Z,23.14
2022-09-09T09:15:39.640Z,21.90
2022-09-09T09:21:03.432Z,21.73
2022-09-09T09:26:11.816Z,20.70
2022-09-09T09:31:15.134Z,20.06
2022-09-09T09:36:40.119Z,19.45
2022-09-09T09:41:44.545Z,21.75
2022-09-09T09:46:48.220Z,24.56
2022-09-09T09:51:53.331Z,26.45
2022-09-09T09:56:57.497Z,27.04
2022-09-09T10:02:18.806Z,26.27
2022-09-09T10:07:24.701Z,25.66
2022-09-09T10:12:46.343Z,27.58
2022-09-09T10:18:22.912Z,29.23
2022-09-09T10:23:52.239Z,29.72
2022-09-09T10:29:06.707Z,30.08
2022-09-09T10:34:29.787Z,29.11
2022-09-09T10:39:43.057Z,28.72
2022-09-09T10:45:24.187Z,25.85
2022-09-09T10:51:03.896Z,25.07
2022-09-09T10:56:13.854Z,27.54
2022-09-09T11:01:23.646Z,30.43
2022-09-09T11:06:36.381Z,28.73
2022-09-09T11:11:55.399Z,27.93
2022-09-09T11:17:11.363Z,26.21
2022-09-09T11:22:39.798Z,24.88
2022-09-09T11:28:03.214Z,24.28
2022-09-09T11:33:27.262Z,23.90
2022-09-09T11:38:33.608Z,23.29
2022-09-09T11:43:43.691Z,23.53
2022-09-09T11:48:58.592Z,22.39
2022-09-09T11:54:24.063Z,21.58
2022-09-09T11:59:33.748Z,22.61
2022-09-09T12:04:43.300Z,23.03
2022-09-09T12:09:52.838Z,22.86
2022-09-09T12:15:03.014Z,22.78
2022-09-09T12:20:16.643Z,22.44
2022-09-09T12:25:45.403Z,22.28
2022-09-09T12:30:56.163Z,22.11
2022-09-09T12:36:01.722Z,22.44
2022-09-09T12:41:04.528Z,22.50
2022-09-09T12:46:17.168Z,22.23
2022-09-09T12:51:29.436Z,22.62
2022-09-09T12:56:34.555Z,22.88
2022-09-09T13:01:37.665Z,23.60
2022-09-09T13:06:40.176Z,23.62
2022-09-09T13:11:51.586Z,24.49
2022-09-09T13:17:05.147Z,23.87
2022-09-09T13:22:38.219Z,24.04
2022-09-09T13:27:43.746Z,25.51
2022-09-09T13:32:46.151Z,28.93
2022-09-09T13:37:48.574Z,29.15
2022-09-09T13:42:56.850Z,27.13
2022-09-09T13:48:10.741Z,24.94
2022-09-09T13:53:13.117Z,25.79
2022-09-09T13:58:20.319Z,28.18
2022-09-09T14:03:22.985Z,25.74
2022-09-09T14:08:29.417Z,26.53
2022-09-09T14:13:33.916Z,30.07
2022-09-09T14:18:37.111Z,31.31
2022-09-09T14:23:39.970Z,26.36
2022-09-09T14:28:54.882Z,24.90
2022-09-09T14:33:58.380Z,25.62
2022-09-09T14:39:00.965Z,26.61
2022-09-09T14:44:05.793Z,26.83
2022-09-09T14:49:08.438Z,29.45
2022-09-09T14:54:11.874Z,26.36
2022-09-09T14:59:14.317Z,25.86
2022-09-09T15:04:17.876Z,26.68
2022-09-09T15:09:29.836Z,24.28
2022-09-09T15:14:32.918Z,23.11
2022-09-09T15:19:35.977Z,23.11
2022-09-09T15:24:38.361Z,23.38
2022-09-09T15:29:40.720Z,23.40
2022-09-09T15:34:43.123Z,23.97
2022-09-09T15:39:45.805Z,23.39
2022-09-09T15:44:48.203Z,22.99
2022-09-09T15:49:51.480Z,22.80
2022-09-09T15:54:53.951Z,23.06
2022-09-09T15:59:56.310Z,22.67
2022-09-09T16:05:02.256Z,22.70
2022-09-09T16:10:04.955Z,22.51
2022-09-09T16:15:08.337Z,22.54
2022-09-09T16:20:12.740Z,22.52
2022-09-09T16:25:15.611Z,22.35
2022-09-09T16:30:18.101Z,22.44
2022-09-09T16:35:22.061Z,22.79
2022-09-09T16:40:24.527Z,23.14
2022-09-09T16:45:26.935Z,22.35
2022-09-09T16:50:31.692Z,21.93
2022-09-09T16:55:35.135Z,21.63
2022-09-09T17:00:40.722Z,21.03
2022-09-09T17:05:43.502Z,20.56
2022-09-09T17:10:46.382Z,20.74
2022-09-09T17:15:48.813Z,20.07
2022-09-09T17:20:51.384Z,19.75
2022-09-09T17:26:01.240Z,20.00
2022-09-09T17:31:05.803Z,20.07
2022-09-09T17:36:15.336Z,19.87
2022-09-09T17:41:20.838Z,19.91
2022-09-09T17:46:32.507Z,19.64
2022-09-09T17:51:36.179Z,19.63
2022-09-09T17:56:39.574Z,19.50
2022-09-09T18:01:45.334Z,19.14
2022-09-09T18:06:50.187Z,19.11
2022-09-09T18:11:56.351Z,18.84
2022-09-09T18:17:00.401Z,18.77
2022-09-09T18:22:05.778Z,18.73
2022-09-09T18:27:10.210Z,18.74
2022-09-09T18:32:12.615Z,18.84
2022-09-09T18:37:15.434Z,18.91
2022-09-09T18:42:17.915Z,19.06
2022-09-09T18:47:21.650Z,19.06
2022-09-09T18:52:25.684Z,19.15
2022-09-09T18:57:31.273Z,19.25
2022-09-09T19:02:35.745Z,19.02
2022-09-09T19:07:41.432Z,18.94
2022-09-09T19:12:45.960Z,19.04
2022-09-09T19:17:50.683Z,19.01
2022-09-09T19:22:53.162Z,18.82
2022-09-09T19:27:55.516Z,18.76
2022-09-09T19:32:59.133Z,18.83
2022-09-09T19:38:01.803Z,18.84
2022-09-09T19:43:07.335Z,18.65
2022-09-09T19:48:12.344Z,18.44
2022-09-09T19:53:14.813Z,18.42
2022-09-09T19:58:18.333Z,18.41
2022-09-09T20:03:20.822Z,18.30
2022-09-09T20:08:23.255Z,18.28
2022-09-09T20:13:25.782Z,18.21
2022-09-09T20:18:32.519Z,18.11
2022-09-09T20:23:35.300Z,18.03
2022-09-09T20:28:39.311Z,17.95
2022-09-09T20:33:43.304Z,17.97
2022-09-09T20:38:51.498Z,17.99
2022-09-09T20:43:56.580Z,17.80
2022-09-09T20:49:03.049Z,17.66
2022-09-09T20:54:09.721Z,17.60
2022-09-09T20:59:14.362Z,17.51
2022-09-09T21:04:19.787Z,17.54
2022-09-09T21:09:25.314Z,17.52
2022-09-09T21:14:27.727Z,17.52
2022-09-09T21:19:30.398Z,17.53
2022-09-09T21:24:32.835Z,17.39
2022-09-09T21:29:37.730Z,17.35
2022-09-09T21:34:42.465Z,17.33
2022-09-09T21:39:45.465Z,17.28
2022-09-09T21:44:47.899Z,17.26
2022-09-09T21:49:51.034Z,17.24
2022-09-09T21:54:53.540Z,17.22
2022-09-09T21:59:56.105Z,17.25
2022-09-09T22:04:59.020Z,17.14
2022-09-09T22:10:01.530Z,17.05
2022-09-09T22:15:04.948Z,17.05
2022-09-09T22:20:08.631Z,17.07
2022-09-09T22:25:10.964Z,17.12
2022-09-09T22:30:13.543Z,17.20
2022-09-09T22:35:16.057Z,17.19
2022-09-09T22:40:18.515Z,17.12
2022-09-09T22:45:21.872Z,17.07
2022-09-09T22:50:25.496Z,17.15
2022-09-09T22:55:28.008Z,17.30
2022-09-09T23:00:30.479Z,17.33
2022-09-09T23:05:33.481Z,17.70
2022-09-09T23:10:35.830Z,18.10
2022-09-09T23:15:38.467Z,17.72
2022-09-09T23:20:41.645Z,17.19
2022-09-09T23:25:43.996Z,16.63
2022-09-09T23:30:47.153Z,16.26
2022-09-09T23:35:50.807Z,15.98
2022-09-09T23:40:53.255Z,15.99
2022-09-09T23:46:00.956Z,15.75
2022-09-09T23:51:03.755Z,15.70
2022-09-09T23:56:06.620Z,15.69
